Sagamore, Pennsylvania
Current Conditions -  °F | °C
As of 9:15 PM on Friday 19 Dec 2014 (Local Time) from KIDI Reporting Station
Overcast Overcast  
Wind Chill: 22°   Ceiling: 2500
Heat Index: 28°   Visibility: 10mi
Dew Point: 19°   Wind: 6mph
Humidity: 69%   Direction: 340°NNW
Pressure: 30.28"   Gusts: NA
Location:  40.78°N, 79.23°W
Report Text: KIDI 200215Z AUTO 34005KT 10SM OVC025 M02/M07 A3028 RMK A01
Loading
Personal Weather Stations






























Interactive Weather Map New forecast layout! Learn more

10-Day Weather Forecast

Advertisements
Track Severe Weather on mobile